sensor_id;sensor_type;location;lat;lon;timestamp;P1;durP1;ratioP1;P2;durP2;ratioP2
61206;SDS011;47070;49.212;8.084;2022-11-11T00:03:16;756.27;;;703.93;;
61206;SDS011;47070;49.212;8.084;2022-11-11T00:07:17;747.23;;;695.17;;
61206;SDS011;47070;49.212;8.084;2022-11-11T00:11:18;741.13;;;689.43;;
61206;SDS011;47070;49.212;8.084;2022-11-11T00:15:18;747.25;;;695.35;;
61206;SDS011;47070;49.212;8.084;2022-11-11T00:19:19;734.93;;;683.43;;
61206;SDS011;47070;49.212;8.084;2022-11-11T00:23:38;748.28;;;696.25;;
61206;SDS011;47070;49.212;8.084;2022-11-11T00:27:57;734.00;;;682.40;;
61206;SDS011;47070;49.212;8.084;2022-11-11T00:31:58;726.42;;;675.03;;
61206;SDS011;47070;49.212;8.084;2022-11-11T00:36:17;735.57;;;683.97;;
61206;SDS011;47070;49.212;8.084;2022-11-11T00:40:18;735.10;;;683.00;;
61206;SDS011;47070;49.212;8.084;2022-11-11T00:44:18;732.47;;;680.90;;
61206;SDS011;47070;49.212;8.084;2022-11-11T00:48:19;740.07;;;688.27;;
61206;SDS011;47070;49.212;8.084;2022-11-11T00:52:38;738.87;;;687.07;;
61206;SDS011;47070;49.212;8.084;2022-11-11T00:56:39;739.53;;;687.73;;
61206;SDS011;47070;49.212;8.084;2022-11-11T01:00:39;726.83;;;675.42;;
61206;SDS011;47070;49.212;8.084;2022-11-11T01:04:40;694.27;;;643.60;;
61206;SDS011;47070;49.212;8.084;2022-11-11T01:08:40;701.77;;;651.00;;
61206;SDS011;47070;49.212;8.084;2022-11-11T01:12:41;704.33;;;653.63;;
61206;SDS011;47070;49.212;8.084;2022-11-11T01:16:42;709.30;;;658.40;;
61206;SDS011;47070;49.212;8.084;2022-11-11T01:20:42;693.38;;;642.83;;
61206;SDS011;47070;49.212;8.084;2022-11-11T01:24:43;700.03;;;649.30;;
61206;SDS011;47070;49.212;8.084;2022-11-11T01:28:47;713.83;;;662.75;;
61206;SDS011;47070;49.212;8.084;2022-11-11T01:32:48;710.75;;;659.75;;
61206;SDS011;47070;49.212;8.084;2022-11-11T01:36:49;706.43;;;655.33;;
61206;SDS011;47070;49.212;8.084;2022-11-11T01:40:49;698.73;;;647.77;;
61206;SDS011;47070;49.212;8.084;2022-11-11T01:44:50;705.03;;;654.23;;
61206;SDS011;47070;49.212;8.084;2022-11-11T01:48:52;720.25;;;668.47;;
61206;SDS011;47070;49.212;8.084;2022-11-11T01:53:20;720.60;;;668.78;;
61206;SDS011;47070;49.212;8.084;2022-11-11T02:01:24;720.83;;;669.53;;
61206;SDS011;47070;49.212;8.084;2022-11-11T02:05:24;716.63;;;665.43;;
61206;SDS011;47070;49.212;8.084;2022-11-11T02:09:43;709.25;;;658.10;;
61206;SDS011;47070;49.212;8.084;2022-11-11T02:13:45;715.15;;;663.95;;
61206;SDS011;47070;49.212;8.084;2022-11-11T02:18:05;691.27;;;640.77;;
61206;SDS011;47070;49.212;8.084;2022-11-11T02:22:07;711.53;;;660.47;;
61206;SDS011;47070;49.212;8.084;2022-11-11T02:26:10;708.63;;;657.53;;
61206;SDS011;47070;49.212;8.084;2022-11-11T02:30:15;714.20;;;663.00;;
61206;SDS011;47070;49.212;8.084;2022-11-11T02:34:17;717.73;;;666.33;;
61206;SDS011;47070;49.212;8.084;2022-11-11T02:38:17;703.70;;;652.80;;
61206;SDS011;47070;49.212;8.084;2022-11-11T02:42:18;691.07;;;640.50;;
61206;SDS011;47070;49.212;8.084;2022-11-11T02:46:20;700.10;;;649.33;;
61206;SDS011;47070;49.212;8.084;2022-11-11T02:50:20;691.60;;;641.10;;
61206;SDS011;47070;49.212;8.084;2022-11-11T02:54:21;698.97;;;648.17;;
61206;SDS011;47070;49.212;8.084;2022-11-11T02:58:22;693.20;;;642.60;;
61206;SDS011;47070;49.212;8.084;2022-11-11T03:02:22;688.03;;;637.57;;
61206;SDS011;47070;49.212;8.084;2022-11-11T03:06:26;693.88;;;643.10;;
61206;SDS011;47070;49.212;8.084;2022-11-11T03:10:26;697.35;;;646.60;;
61206;SDS011;47070;49.212;8.084;2022-11-11T03:14:37;687.42;;;636.90;;
61206;SDS011;47070;49.212;8.084;2022-11-11T03:18:37;688.42;;;637.85;;
61206;SDS011;47070;49.212;8.084;2022-11-11T03:22:38;694.33;;;643.50;;
61206;SDS011;47070;49.212;8.084;2022-11-11T03:26:38;686.20;;;635.60;;
61206;SDS011;47070;49.212;8.084;2022-11-11T03:30:40;687.70;;;637.07;;
61206;SDS011;47070;49.212;8.084;2022-11-11T03:34:42;688.57;;;637.63;;
61206;SDS011;47070;49.212;8.084;2022-11-11T03:38:42;673.73;;;623.03;;
61206;SDS011;47070;49.212;8.084;2022-11-11T03:42:43;686.07;;;634.97;;
61206;SDS011;47070;49.212;8.084;2022-11-11T03:46:43;682.67;;;631.95;;
61206;SDS011;47070;49.212;8.084;2022-11-11T03:50:46;676.97;;;626.37;;
61206;SDS011;47070;49.212;8.084;2022-11-11T03:54:47;688.78;;;637.95;;
61206;SDS011;47070;49.212;8.084;2022-11-11T03:58:48;696.15;;;645.35;;
61206;SDS011;47070;49.212;8.084;2022-11-11T04:02:48;679.90;;;629.30;;
61206;SDS011;47070;49.212;8.084;2022-11-11T04:07:08;687.17;;;636.53;;
61206;SDS011;47070;49.212;8.084;2022-11-11T04:11:35;671.40;;;620.92;;
61206;SDS011;47070;49.212;8.084;2022-11-11T04:15:38;679.20;;;628.80;;
61206;SDS011;47070;49.212;8.084;2022-11-11T04:19:58;692.88;;;642.08;;
61206;SDS011;47070;49.212;8.084;2022-11-11T04:24:18;674.22;;;623.92;;
61206;SDS011;47070;49.212;8.084;2022-11-11T04:28:38;676.15;;;625.85;;
61206;SDS011;47070;49.212;8.084;2022-11-11T04:32:57;667.03;;;616.88;;
61206;SDS011;47070;49.212;8.084;2022-11-11T04:36:57;662.97;;;612.80;;
61206;SDS011;47070;49.212;8.084;2022-11-11T04:40:58;681.58;;;630.92;;
61206;SDS011;47070;49.212;8.084;2022-11-11T04:45:05;669.30;;;619.17;;
61206;SDS011;47070;49.212;8.084;2022-11-11T04:49:26;676.63;;;626.00;;
61206;SDS011;47070;49.212;8.084;2022-11-11T04:53:27;651.30;;;601.27;;
61206;SDS011;47070;49.212;8.084;2022-11-11T04:57:29;651.75;;;601.80;;
61206;SDS011;47070;49.212;8.084;2022-11-11T05:01:29;641.23;;;591.53;;
61206;SDS011;47070;49.212;8.084;2022-11-11T05:10:09;648.50;;;598.60;;
61206;SDS011;47070;49.212;8.084;2022-11-11T05:14:09;645.97;;;596.30;;
61206;SDS011;47070;49.212;8.084;2022-11-11T05:18:28;648.05;;;598.22;;
61206;SDS011;47070;49.212;8.084;2022-11-11T05:22:47;649.47;;;599.17;;
61206;SDS011;47070;49.212;8.084;2022-11-11T05:26:48;658.23;;;608.30;;
61206;SDS011;47070;49.212;8.084;2022-11-11T05:30:48;648.50;;;598.53;;
61206;SDS011;47070;49.212;8.084;2022-11-11T05:34:49;635.40;;;585.90;;
61206;SDS011;47070;49.212;8.084;2022-11-11T05:38:50;637.33;;;587.53;;
61206;SDS011;47070;49.212;8.084;2022-11-11T05:42:50;646.30;;;596.53;;
61206;SDS011;47070;49.212;8.084;2022-11-11T05:46:51;652.40;;;602.53;;
61206;SDS011;47070;49.212;8.084;2022-11-11T05:50:51;653.80;;;603.80;;
61206;SDS011;47070;49.212;8.084;2022-11-11T05:54:52;661.77;;;611.57;;
61206;SDS011;47070;49.212;8.084;2022-11-11T05:58:52;652.07;;;601.97;;
61206;SDS011;47070;49.212;8.084;2022-11-11T06:02:53;650.97;;;600.47;;
61206;SDS011;47070;49.212;8.084;2022-11-11T06:06:54;628.00;;;577.97;;
61206;SDS011;47070;49.212;8.084;2022-11-11T06:10:54;646.13;;;595.75;;
61206;SDS011;47070;49.212;8.084;2022-11-11T06:14:55;648.00;;;597.57;;
61206;SDS011;47070;49.212;8.084;2022-11-11T06:18:55;655.40;;;604.75;;
61206;SDS011;47070;49.212;8.084;2022-11-11T06:22:56;650.57;;;600.17;;
61206;SDS011;47070;49.212;8.084;2022-11-11T06:26:57;678.05;;;626.65;;
61206;SDS011;47070;49.212;8.084;2022-11-11T06:30:58;682.77;;;631.53;;
61206;SDS011;47070;49.212;8.084;2022-11-11T06:34:59;666.77;;;616.47;;
61206;SDS011;47070;49.212;8.084;2022-11-11T06:38:59;686.20;;;635.43;;
61206;SDS011;47070;49.212;8.084;2022-11-11T06:43:00;712.17;;;660.63;;
61206;SDS011;47070;49.212;8.084;2022-11-11T06:47:01;704.07;;;651.07;;
61206;SDS011;47070;49.212;8.084;2022-11-11T06:51:02;695.33;;;644.13;;
61206;SDS011;47070;49.212;8.084;2022-11-11T06:55:04;703.77;;;652.57;;
61206;SDS011;47070;49.212;8.084;2022-11-11T06:59:05;711.67;;;660.07;;
61206;SDS011;47070;49.212;8.084;2022-11-11T07:03:06;698.87;;;647.23;;
61206;SDS011;47070;49.212;8.084;2022-11-11T07:07:08;709.95;;;657.90;;
61206;SDS011;47070;49.212;8.084;2022-11-11T07:11:08;715.73;;;663.73;;
61206;SDS011;47070;49.212;8.084;2022-11-11T07:15:09;724.17;;;671.57;;
61206;SDS011;47070;49.212;8.084;2022-11-11T07:19:10;738.00;;;685.28;;
61206;SDS011;47070;49.212;8.084;2022-11-11T07:23:11;758.37;;;705.27;;
61206;SDS011;47070;49.212;8.084;2022-11-11T07:27:11;770.07;;;716.77;;
61206;SDS011;47070;49.212;8.084;2022-11-11T07:31:12;771.37;;;717.90;;
61206;SDS011;47070;49.212;8.084;2022-11-11T07:35:12;773.00;;;719.83;;
61206;SDS011;47070;49.212;8.084;2022-11-11T07:39:14;767.55;;;714.17;;
61206;SDS011;47070;49.212;8.084;2022-11-11T07:43:14;779.87;;;726.23;;
61206;SDS011;47070;49.212;8.084;2022-11-11T07:47:15;777.50;;;724.20;;
61206;SDS011;47070;49.212;8.084;2022-11-11T07:51:15;777.47;;;723.92;;
61206;SDS011;47070;49.212;8.084;2022-11-11T07:55:16;781.80;;;727.80;;
61206;SDS011;47070;49.212;8.084;2022-11-11T07:59:16;771.60;;;718.40;;
61206;SDS011;47070;49.212;8.084;2022-11-11T08:03:17;768.17;;;715.30;;
61206;SDS011;47070;49.212;8.084;2022-11-11T08:07:18;787.22;;;733.95;;
61206;SDS011;47070;49.212;8.084;2022-11-11T08:11:18;782.53;;;729.25;;
61206;SDS011;47070;49.212;8.084;2022-11-11T08:15:39;782.47;;;729.67;;
61206;SDS011;47070;49.212;8.084;2022-11-11T08:19:40;786.25;;;733.20;;
61206;SDS011;47070;49.212;8.084;2022-11-11T08:23:41;781.38;;;728.08;;
61206;SDS011;47070;49.212;8.084;2022-11-11T08:27:41;785.30;;;732.23;;
61206;SDS011;47070;49.212;8.084;2022-11-11T08:31:42;784.00;;;730.50;;
61206;SDS011;47070;49.212;8.084;2022-11-11T08:35:42;790.07;;;736.93;;
61206;SDS011;47070;49.212;8.084;2022-11-11T08:39:43;800.23;;;746.93;;
61206;SDS011;47070;49.212;8.084;2022-11-11T08:43:43;805.90;;;752.03;;
61206;SDS011;47070;49.212;8.084;2022-11-11T08:47:44;807.67;;;754.07;;
61206;SDS011;47070;49.212;8.084;2022-11-11T08:51:44;825.77;;;771.47;;
61206;SDS011;47070;49.212;8.084;2022-11-11T08:55:45;815.10;;;761.20;;
61206;SDS011;47070;49.212;8.084;2022-11-11T08:59:45;825.83;;;771.17;;
61206;SDS011;47070;49.212;8.084;2022-11-11T09:03:46;823.27;;;768.97;;
61206;SDS011;47070;49.212;8.084;2022-11-11T09:07:47;838.67;;;784.10;;
61206;SDS011;47070;49.212;8.084;2022-11-11T09:11:47;844.50;;;789.70;;
61206;SDS011;47070;49.212;8.084;2022-11-11T09:15:48;854.27;;;799.20;;
61206;SDS011;47070;49.212;8.084;2022-11-11T09:19:48;853.47;;;798.47;;
61206;SDS011;47070;49.212;8.084;2022-11-11T09:23:49;853.20;;;797.90;;
61206;SDS011;47070;49.212;8.084;2022-11-11T09:27:53;861.90;;;806.70;;
61206;SDS011;47070;49.212;8.084;2022-11-11T09:31:55;865.22;;;810.00;;
61206;SDS011;47070;49.212;8.084;2022-11-11T09:35:56;872.88;;;817.50;;
61206;SDS011;47070;49.212;8.084;2022-11-11T09:39:58;867.47;;;812.33;;
61206;SDS011;47070;49.212;8.084;2022-11-11T09:43:59;875.22;;;819.83;;
61206;SDS011;47070;49.212;8.084;2022-11-11T09:48:19;863.00;;;807.83;;
61206;SDS011;47070;49.212;8.084;2022-11-11T09:56:40;877.85;;;822.42;;
61206;SDS011;47070;49.212;8.084;2022-11-11T10:00:42;878.58;;;823.08;;
61206;SDS011;47070;49.212;8.084;2022-11-11T10:04:52;870.88;;;815.65;;
61206;SDS011;47070;49.212;8.084;2022-11-11T10:13:33;882.60;;;826.70;;
61206;SDS011;47070;49.212;8.084;2022-11-11T10:22:11;883.90;;;828.23;;
61206;SDS011;47070;49.212;8.084;2022-11-11T10:30:38;895.93;;;839.80;;
61206;SDS011;47070;49.212;8.084;2022-11-11T10:34:38;877.80;;;821.97;;
61206;SDS011;47070;49.212;8.084;2022-11-11T10:38:45;886.30;;;830.53;;
61206;SDS011;47070;49.212;8.084;2022-11-11T10:42:46;874.50;;;819.00;;
61206;SDS011;47070;49.212;8.084;2022-11-11T10:47:06;879.47;;;823.87;;
61206;SDS011;47070;49.212;8.084;2022-11-11T10:51:14;873.70;;;818.17;;
61206;SDS011;47070;49.212;8.084;2022-11-11T10:55:20;876.70;;;821.08;;
61206;SDS011;47070;49.212;8.084;2022-11-11T10:59:33;884.10;;;828.15;;
61206;SDS011;47070;49.212;8.084;2022-11-11T11:03:42;884.47;;;828.40;;
61206;SDS011;47070;49.212;8.084;2022-11-11T11:07:49;897.00;;;840.50;;
61206;SDS011;47070;49.212;8.084;2022-11-11T11:12:05;903.20;;;846.53;;
61206;SDS011;47070;49.212;8.084;2022-11-11T11:16:14;909.70;;;852.78;;
61206;SDS011;47070;49.212;8.084;2022-11-11T11:20:24;895.53;;;839.08;;
61206;SDS011;47070;49.212;8.084;2022-11-11T11:24:34;898.63;;;842.03;;
61206;SDS011;47070;49.212;8.084;2022-11-11T11:28:52;896.40;;;840.15;;
61206;SDS011;47070;49.212;8.084;2022-11-11T11:33:02;890.08;;;833.83;;
61206;SDS011;47070;49.212;8.084;2022-11-11T11:37:04;890.88;;;834.70;;
61206;SDS011;47070;49.212;8.084;2022-11-11T11:41:04;893.23;;;836.83;;
61206;SDS011;47070;49.212;8.084;2022-11-11T11:54:10;886.03;;;829.45;;
61206;SDS011;47070;49.212;8.084;2022-11-11T11:58:52;886.40;;;830.05;;
61206;SDS011;47070;49.212;8.084;2022-11-11T12:03:24;895.10;;;838.50;;
61206;SDS011;47070;49.212;8.084;2022-11-11T12:12:04;910.03;;;853.30;;
61206;SDS011;47070;49.212;8.084;2022-11-11T12:20:51;903.13;;;846.22;;
61206;SDS011;47070;49.212;8.084;2022-11-11T12:25:16;899.50;;;843.10;;
61206;SDS011;47070;49.212;8.084;2022-11-11T12:29:29;907.90;;;851.10;;
61206;SDS011;47070;49.212;8.084;2022-11-11T12:38:20;933.65;;;876.13;;
61206;SDS011;47070;49.212;8.084;2022-11-11T12:51:56;934.53;;;876.97;;
61206;SDS011;47070;49.212;8.084;2022-11-11T13:00:29;944.55;;;886.10;;
61206;SDS011;47070;49.212;8.084;2022-11-11T13:04:33;933.60;;;876.08;;
61206;SDS011;47070;49.212;8.084;2022-11-11T13:08:53;938.03;;;880.30;;
61206;SDS011;47070;49.212;8.084;2022-11-11T13:17:43;933.95;;;876.03;;
61206;SDS011;47070;49.212;8.084;2022-11-11T13:25:50;943.88;;;885.72;;
61206;SDS011;47070;49.212;8.084;2022-11-11T13:34:04;919.77;;;862.37;;
61206;SDS011;47070;49.212;8.084;2022-11-11T13:38:11;917.43;;;859.27;;
61206;SDS011;47070;49.212;8.084;2022-11-11T13:42:25;915.95;;;858.70;;
61206;SDS011;47070;49.212;8.084;2022-11-11T13:46:47;911.90;;;854.83;;
61206;SDS011;47070;49.212;8.084;2022-11-11T13:50:48;913.97;;;856.90;;
61206;SDS011;47070;49.212;8.084;2022-11-11T13:54:49;909.77;;;852.57;;
61206;SDS011;47070;49.212;8.084;2022-11-11T13:59:01;900.50;;;843.60;;
61206;SDS011;47070;49.212;8.084;2022-11-11T14:11:46;909.13;;;851.87;;
61206;SDS011;47070;49.212;8.084;2022-11-11T14:15:47;904.97;;;847.97;;
61206;SDS011;47070;49.212;8.084;2022-11-11T14:19:49;907.33;;;850.47;;
61206;SDS011;47070;49.212;8.084;2022-11-11T14:23:52;914.63;;;857.47;;
61206;SDS011;47070;49.212;8.084;2022-11-11T14:27:54;911.35;;;854.35;;
61206;SDS011;47070;49.212;8.084;2022-11-11T14:31:59;893.80;;;837.30;;
61206;SDS011;47070;49.212;8.084;2022-11-11T14:40:35;887.60;;;831.25;;
61206;SDS011;47070;49.212;8.084;2022-11-11T14:52:51;897.30;;;840.37;;
61206;SDS011;47070;49.212;8.084;2022-11-11T14:57:07;877.20;;;820.47;;
61206;SDS011;47070;49.212;8.084;2022-11-11T15:01:19;885.22;;;828.67;;
61206;SDS011;47070;49.212;8.084;2022-11-11T15:05:42;877.13;;;820.80;;
61206;SDS011;47070;49.212;8.084;2022-11-11T15:10:03;884.47;;;827.90;;
61206;SDS011;47070;49.212;8.084;2022-11-11T15:14:33;887.80;;;831.13;;
61206;SDS011;47070;49.212;8.084;2022-11-11T15:40:47;890.60;;;833.40;;
61206;SDS011;47070;49.212;8.084;2022-11-11T15:44:49;890.85;;;833.85;;
61206;SDS011;47070;49.212;8.084;2022-11-11T15:48:50;873.30;;;816.45;;
61206;SDS011;47070;49.212;8.084;2022-11-11T15:52:54;871.50;;;813.55;;
61206;SDS011;47070;49.212;8.084;2022-11-11T15:56:56;870.50;;;814.47;;
61206;SDS011;47070;49.212;8.084;2022-11-11T16:00:57;872.73;;;816.23;;
61206;SDS011;47070;49.212;8.084;2022-11-11T16:05:05;865.33;;;808.70;;
61206;SDS011;47070;49.212;8.084;2022-11-11T16:09:14;860.70;;;804.13;;
61206;SDS011;47070;49.212;8.084;2022-11-11T16:13:33;874.95;;;817.42;;
61206;SDS011;47070;49.212;8.084;2022-11-11T16:17:39;866.92;;;810.47;;
61206;SDS011;47070;49.212;8.084;2022-11-11T16:21:52;870.20;;;813.85;;
61206;SDS011;47070;49.212;8.084;2022-11-11T16:26:01;865.05;;;808.75;;
61206;SDS011;47070;49.212;8.084;2022-11-11T16:34:32;869.57;;;813.37;;
61206;SDS011;47070;49.212;8.084;2022-11-11T16:38:34;863.75;;;807.53;;
61206;SDS011;47070;49.212;8.084;2022-11-11T16:42:37;866.38;;;809.50;;
61206;SDS011;47070;49.212;8.084;2022-11-11T16:46:38;866.17;;;809.63;;
61206;SDS011;47070;49.212;8.084;2022-11-11T16:50:54;861.40;;;804.70;;
61206;SDS011;47070;49.212;8.084;2022-11-11T16:55:01;856.90;;;800.75;;
61206;SDS011;47070;49.212;8.084;2022-11-11T16:59:05;851.03;;;793.58;;
61206;SDS011;47070;49.212;8.084;2022-11-11T17:03:12;858.30;;;801.78;;
61206;SDS011;47070;49.212;8.084;2022-11-11T17:11:41;853.58;;;797.05;;
61206;SDS011;47070;49.212;8.084;2022-11-11T17:15:43;825.90;;;770.10;;
61206;SDS011;47070;49.212;8.084;2022-11-11T17:19:44;831.40;;;775.70;;
61206;SDS011;47070;49.212;8.084;2022-11-11T17:23:44;840.63;;;784.37;;
61206;SDS011;47070;49.212;8.084;2022-11-11T17:27:45;844.90;;;788.42;;
61206;SDS011;47070;49.212;8.084;2022-11-11T17:31:45;848.53;;;792.47;;
61206;SDS011;47070;49.212;8.084;2022-11-11T17:35:52;848.33;;;792.17;;
61206;SDS011;47070;49.212;8.084;2022-11-11T17:39:53;847.00;;;790.95;;
61206;SDS011;47070;49.212;8.084;2022-11-11T17:43:53;837.73;;;781.93;;
61206;SDS011;47070;49.212;8.084;2022-11-11T17:47:54;849.80;;;792.97;;
61206;SDS011;47070;49.212;8.084;2022-11-11T17:51:54;832.95;;;776.88;;
61206;SDS011;47070;49.212;8.084;2022-11-11T17:55:58;848.03;;;791.55;;
61206;SDS011;47070;49.212;8.084;2022-11-11T18:00:00;832.92;;;776.78;;
61206;SDS011;47070;49.212;8.084;2022-11-11T18:04:01;832.88;;;775.38;;
61206;SDS011;47070;49.212;8.084;2022-11-11T18:08:03;840.13;;;782.70;;
61206;SDS011;47070;49.212;8.084;2022-11-11T18:12:04;841.15;;;783.92;;
61206;SDS011;47070;49.212;8.084;2022-11-11T18:16:04;845.17;;;786.50;;
61206;SDS011;47070;49.212;8.084;2022-11-11T18:20:05;848.22;;;791.40;;
61206;SDS011;47070;49.212;8.084;2022-11-11T18:24:07;844.72;;;787.25;;
61206;SDS011;47070;49.212;8.084;2022-11-11T18:28:09;841.67;;;785.57;;
61206;SDS011;47070;49.212;8.084;2022-11-11T18:32:10;827.40;;;771.43;;
61206;SDS011;47070;49.212;8.084;2022-11-11T18:36:11;826.13;;;770.45;;
61206;SDS011;47070;49.212;8.084;2022-11-11T18:40:16;821.15;;;765.40;;
61206;SDS011;47070;49.212;8.084;2022-11-11T18:44:17;818.93;;;763.53;;
61206;SDS011;47070;49.212;8.084;2022-11-11T18:48:17;831.33;;;775.17;;
61206;SDS011;47070;49.212;8.084;2022-11-11T18:52:18;826.57;;;770.60;;
61206;SDS011;47070;49.212;8.084;2022-11-11T18:56:19;814.17;;;759.07;;
61206;SDS011;47070;49.212;8.084;2022-11-11T19:00:21;810.72;;;756.17;;
61206;SDS011;47070;49.212;8.084;2022-11-11T19:04:21;830.38;;;774.97;;
61206;SDS011;47070;49.212;8.084;2022-11-11T19:08:22;830.38;;;775.17;;
61206;SDS011;47070;49.212;8.084;2022-11-11T19:12:23;831.70;;;775.90;;
61206;SDS011;47070;49.212;8.084;2022-11-11T19:16:23;830.88;;;774.92;;
61206;SDS011;47070;49.212;8.084;2022-11-11T19:20:24;832.93;;;777.80;;
61206;SDS011;47070;49.212;8.084;2022-11-11T19:24:24;829.80;;;774.40;;
61206;SDS011;47070;49.212;8.084;2022-11-11T19:28:25;837.72;;;782.33;;
61206;SDS011;47070;49.212;8.084;2022-11-11T19:32:26;835.72;;;779.97;;
61206;SDS011;47070;49.212;8.084;2022-11-11T19:36:27;840.30;;;784.87;;
61206;SDS011;47070;49.212;8.084;2022-11-11T19:40:28;832.57;;;775.97;;
61206;SDS011;47070;49.212;8.084;2022-11-11T19:44:29;830.43;;;774.80;;
61206;SDS011;47070;49.212;8.084;2022-11-11T19:48:29;820.65;;;764.58;;
61206;SDS011;47070;49.212;8.084;2022-11-11T19:52:30;810.67;;;756.08;;
61206;SDS011;47070;49.212;8.084;2022-11-11T19:56:31;817.55;;;762.22;;
61206;SDS011;47070;49.212;8.084;2022-11-11T20:00:33;821.47;;;766.83;;
61206;SDS011;47070;49.212;8.084;2022-11-11T20:04:34;827.05;;;772.10;;
61206;SDS011;47070;49.212;8.084;2022-11-11T20:08:35;814.67;;;760.28;;
61206;SDS011;47070;49.212;8.084;2022-11-11T20:12:35;807.73;;;753.43;;
61206;SDS011;47070;49.212;8.084;2022-11-11T20:16:36;815.63;;;760.03;;
61206;SDS011;47070;49.212;8.084;2022-11-11T20:20:36;803.03;;;748.65;;
61206;SDS011;47070;49.212;8.084;2022-11-11T20:24:37;814.10;;;759.33;;
61206;SDS011;47070;49.212;8.084;2022-11-11T20:28:38;812.97;;;757.67;;
61206;SDS011;47070;49.212;8.084;2022-11-11T20:32:39;813.45;;;758.53;;
61206;SDS011;47070;49.212;8.084;2022-11-11T20:36:40;807.42;;;752.13;;
61206;SDS011;47070;49.212;8.084;2022-11-11T20:40:40;810.80;;;755.77;;
61206;SDS011;47070;49.212;8.084;2022-11-11T20:44:41;806.80;;;749.70;;
61206;SDS011;47070;49.212;8.084;2022-11-11T20:48:42;811.60;;;754.58;;
61206;SDS011;47070;49.212;8.084;2022-11-11T20:52:43;809.28;;;752.67;;
61206;SDS011;47070;49.212;8.084;2022-11-11T20:56:44;787.50;;;732.95;;
61206;SDS011;47070;49.212;8.084;2022-11-11T21:00:46;770.25;;;714.90;;
61206;SDS011;47070;49.212;8.084;2022-11-11T21:04:47;791.30;;;735.73;;
61206;SDS011;47070;49.212;8.084;2022-11-11T21:08:47;783.70;;;727.97;;
61206;SDS011;47070;49.212;8.084;2022-11-11T21:12:48;778.13;;;724.07;;
61206;SDS011;47070;49.212;8.084;2022-11-11T21:16:48;769.90;;;715.37;;
61206;SDS011;47070;49.212;8.084;2022-11-11T21:20:49;770.08;;;715.60;;
61206;SDS011;47070;49.212;8.084;2022-11-11T21:24:49;758.53;;;704.83;;
61206;SDS011;47070;49.212;8.084;2022-11-11T21:28:50;756.67;;;703.17;;
61206;SDS011;47070;49.212;8.084;2022-11-11T21:32:51;761.22;;;707.60;;
61206;SDS011;47070;49.212;8.084;2022-11-11T21:36:51;765.05;;;711.92;;
61206;SDS011;47070;49.212;8.084;2022-11-11T21:40:52;750.93;;;697.97;;
61206;SDS011;47070;49.212;8.084;2022-11-11T21:45:00;743.70;;;690.65;;
61206;SDS011;47070;49.212;8.084;2022-11-11T21:49:01;766.50;;;712.07;;
61206;SDS011;47070;49.212;8.084;2022-11-11T21:53:02;753.78;;;699.78;;
61206;SDS011;47070;49.212;8.084;2022-11-11T21:57:02;767.92;;;713.85;;
61206;SDS011;47070;49.212;8.084;2022-11-11T22:05:10;775.40;;;721.58;;
61206;SDS011;47070;49.212;8.084;2022-11-11T22:09:11;767.67;;;714.73;;
61206;SDS011;47070;49.212;8.084;2022-11-11T22:13:11;776.28;;;722.35;;
61206;SDS011;47070;49.212;8.084;2022-11-11T22:17:12;772.97;;;719.10;;
61206;SDS011;47070;49.212;8.084;2022-11-11T22:21:13;771.47;;;717.50;;
61206;SDS011;47070;49.212;8.084;2022-11-11T22:25:16;769.70;;;716.30;;
61206;SDS011;47070;49.212;8.084;2022-11-11T22:29:17;773.90;;;720.10;;
61206;SDS011;47070;49.212;8.084;2022-11-11T22:33:17;781.27;;;727.40;;
61206;SDS011;47070;49.212;8.084;2022-11-11T22:37:18;773.93;;;720.43;;
61206;SDS011;47070;49.212;8.084;2022-11-11T22:41:19;770.78;;;716.97;;
61206;SDS011;47070;49.212;8.084;2022-11-11T22:45:22;765.33;;;711.93;;
61206;SDS011;47070;49.212;8.084;2022-11-11T22:49:22;761.33;;;707.80;;
61206;SDS011;47070;49.212;8.084;2022-11-11T22:53:23;757.63;;;703.67;;
61206;SDS011;47070;49.212;8.084;2022-11-11T22:57:23;774.33;;;720.13;;
61206;SDS011;47070;49.212;8.084;2022-11-11T23:01:30;771.53;;;717.38;;
61206;SDS011;47070;49.212;8.084;2022-11-11T23:05:31;766.50;;;712.83;;
61206;SDS011;47070;49.212;8.084;2022-11-11T23:09:31;761.93;;;708.90;;
61206;SDS011;47070;49.212;8.084;2022-11-11T23:13:36;758.05;;;703.58;;
61206;SDS011;47070;49.212;8.084;2022-11-11T23:17:37;753.42;;;696.83;;
61206;SDS011;47070;49.212;8.084;2022-11-11T23:21:38;737.47;;;683.80;;
61206;SDS011;47070;49.212;8.084;2022-11-11T23:25:38;728.60;;;675.03;;
61206;SDS011;47070;49.212;8.084;2022-11-11T23:29:39;715.03;;;662.47;;
61206;SDS011;47070;49.212;8.084;2022-11-11T23:33:41;720.43;;;667.33;;
61206;SDS011;47070;49.212;8.084;2022-11-11T23:37:43;726.47;;;673.80;;
61206;SDS011;47070;49.212;8.084;2022-11-11T23:41:43;720.90;;;668.57;;
61206;SDS011;47070;49.212;8.084;2022-11-11T23:45:44;718.67;;;666.57;;
61206;SDS011;47070;49.212;8.084;2022-11-11T23:49:44;718.77;;;666.73;;
61206;SDS011;47070;49.212;8.084;2022-11-11T23:53:45;727.00;;;674.55;;
61206;SDS011;47070;49.212;8.084;2022-11-11T23:57:45;718.57;;;666.77;;
